logo
App data

The Purring Quest

Have you ever wanted to be a cat? You will be able, thanks to the aventure platformer The Purring Quest. Take on the role of Kimchi the cat and meet famous cat of the internet in a journey full of humor.
Store | Hub | SteamDB | Site
Developer: Valhalla Cats Publisher: Valhalla Cats
Genre: Indie
Languages: English, Spanish - Spain, French, Russian, Simplified Chinese, Korean
Tags: Cats (68), Indie (51), Cute (50), Platformer (47), Singleplayer (33), 2D (32), Hand-drawn (28), Adventure (26), Great Soundtrack (21), Action (18), 2D Platformer (10)
Category: Single-player, Steam Achievements, Steam Trading Cards, Partial Controller Support, Steam Cloud
Release date: Nov 12, 2015
Price: $1.09 89%
Old userscore: 84% Owners: 50,000 .. 100,000
Followers: 3,418
Peak concurrent players yesterday: 4
YouTube stats: 4 views and 0 comments for top 50 videos uploaded last week, 0 new videos uploaded yesterday.
Playtime total: 03:43 (average) 03:43 (median)

Steam Spy is still in beta, so expect major bugs.

Owners data:

Access restricted.

This feature is only available to users with special access rights. Sorry.

If you want to proceed, you need to register or log in first and then back Steam Spy on Patreon. Look for Indie or Pro pledge.

Don't forget to use the same email as on Steam Spy!

Audience in 2 weeks:

Access restricted.

This feature is only available to users with special access rights. Sorry.

If you want to proceed, you need to register or log in first and then back Steam Spy on Patreon. Look for Indie or Pro pledge.

Don't forget to use the same email as on Steam Spy!

Peak daily concurrent players:

CCU data courtesy of SteamDB. Used with permission.

Hourly concurrent players:

Daily Twitch stats:

Hourly Twitch stats:

Followers over time

Access restricted.

This feature is only available to users with special access rights. Sorry.

If you want to proceed, you need to register or log in first and then back Steam Spy on Patreon. Look for Indie or Pro pledge.

Don't forget to use the same email as on Steam Spy!

Views for top 50 videos on YouTube for this game:

Games similar to this one:

# Game Release date
Price
Score rank
(Userscore / Metascore)
Owners
Players
Playtime (Median)
1 Redemption: Eternal Quest Aug 28, 2015 $0.79N/A (N/A)100,000 .. 200,0000%00:00 (00:00)
2 Heavy Gear Assault Feb 10, 2017 $39.99N/A (N/A)20,000 .. 50,0000%00:00 (00:00)
3 Void Invaders Aug 14, 2015 $0.5N/A (N/A)20,000 .. 50,0000%00:00 (00:00)
4 Cosmic Leap Mar 17, 2016 $0.49N/A (N/A)0 .. 20,0000%00:00 (00:00)
5 Wild Island Quest Sep 4, 2015 $0.49N/A (N/A)50,000 .. 100,0000%00:00 (00:00)
6 Godus Wars Feb 3, 2016 $14.99N/A (N/A)50,000 .. 100,0000%00:00 (00:00)
7 Kitchen Simulator 2015 Sep 2, 2015 $0.49N/A (N/A)20,000 .. 50,0000%00:00 (00:00)
8 Bell Ringer Mar 18, 2016 $6.99N/A (N/A)200,000 .. 500,00014.29%03:11 (01:03)
9 ChargeShot Sep 18, 2015 $1.99N/A (N/A)20,000 .. 50,0000%00:00 (00:00)
10 Space Moth DX Jan 22, 2016 $0.49N/A (N/A)20,000 .. 50,0000%00:00 (00:00)
11 Press X to Not Die Oct 6, 2017 $0.74N/A (N/A)50,000 .. 100,0000%00:00 (00:00)
12 Super Trench Attack 2 Nov 6, 2015 $1.49N/A (N/A)20,000 .. 50,0000%00:00 (00:00)
13 1,000 Heads Among the Trees Dec 11, 2015 $0.99N/A (N/A)100,000 .. 200,0000%00:00 (00:00)
14 Earth Overclocked Dec 4, 2015 $0.99N/A (N/A)20,000 .. 50,0000%00:00 (00:00)
15 Perraw - FPS Clone War Alpha Jan 29, 2016 $0.59N/A (N/A)0 .. 20,0000%00:00 (00:00)
16 iZBOT Sep 1, 2015 $11.99N/A (N/A)20,000 .. 50,0000%00:00 (00:00)
17 Morphine Oct 28, 2015 $0.74N/A (N/A)20,000 .. 50,0000%00:00 (00:00)
18 10 Second Ninja X Jul 19, 2016 $0.99N/A (N/A)200,000 .. 500,0002.11%00:10 (00:09)
19 NORTH Apr 27, 2016 $0.49N/A (N/A)200,000 .. 500,0000%00:00 (00:00)
20 Binaries Apr 4, 2016 $0.99N/A (N/A)0 .. 20,0000%00:00 (00:00)
21 Scanner Sombre Apr 26, 2017 $1.19N/A (N/A/67%)100,000 .. 200,0000%00:00 (00:00)
22 Mimpi Dreams Mar 22, 2016 FreeN/A (N/A)50,000 .. 100,0000%00:00 (00:00)
23 ORCS May 20, 2016 $0.49N/A (N/A)20,000 .. 50,0000%00:00 (00:00)
24 Bunker Punks May 28, 2018 $2.99N/A (N/A)0 .. 20,0000%00:00 (00:00)
25 Reflection of Mine Feb 24, 2017 $1.99N/A (N/A)0 .. 20,0000%00:00 (00:00)
26 Cube Land Arena Mar 29, 2016 $0.49N/A (N/A)50,000 .. 100,0000%00:00 (00:00)
27 Star Drifter Jun 1, 2016 $0.49N/A (N/A)200,000 .. 500,0000%00:00 (00:00)
28 Hero Quest: Tower Conflict Apr 13, 2016 $0.49N/A (N/A)200,000 .. 500,0000%00:00 (00:00)
29 PERFECT ANGLE: The puzzle game based on optical illusions Dec 22, 2015 $2.49N/A (N/A)50,000 .. 100,0000%00:00 (00:00)
30 CrazyCars3D Mar 28, 2016 $2.09N/A (N/A)50,000 .. 100,0000%00:00 (00:00)
31 Doodle Kingdom Jun 9, 2016 $2.6N/A (N/A)20,000 .. 50,0000%00:00 (00:00)
32 Mainlining Jan 26, 2017 $1.94N/A (N/A/73%)20,000 .. 50,0000%00:00 (00:00)
33 Rencounter Nov 4, 2016 $0.59N/A (N/A)20,000 .. 50,0000%00:00 (00:00)
34 Domino Sky Apr 5, 2016 $1.39N/A (N/A)50,000 .. 100,0000%00:00 (00:00)
35 Imagine Me Dec 9, 2014 $2.99N/A (N/A)20,000 .. 50,0000%00:00 (00:00)
36 Maia Nov 23, 2018 $3.74N/A (N/A)50,000 .. 100,0000%00:00 (00:00)
37 Jones On Fire Mar 14, 2013 $1.49N/A (N/A)50,000 .. 100,0000%00:00 (00:00)
38 FOTONICA Nov 6, 2014 $1.49N/A (N/A/71%)50,000 .. 100,0000%00:00 (00:00)
39 Labyrinthine Dreams May 26, 2015 $0.49N/A (N/A)20,000 .. 50,0000%00:00 (00:00)
40 Gentlemen! Nov 5, 2013 $1.24N/A (N/A)20,000 .. 50,0000%00:00 (00:00)
41 Munin Jun 10, 2014 $0.49N/A (N/A/68%)100,000 .. 200,0000%00:00 (00:00)
42 Escape Goat 2 Mar 24, 2014 $3.99N/A (N/A/76%)50,000 .. 100,0000%00:00 (00:00)
43 Rabbit Hole 3D: Steam Edition Apr 25, 2014 $1.01N/A (N/A)50,000 .. 100,0000%00:00 (00:00)
44 Signal Ops Nov 18, 2013 $0.99N/A (N/A/61%)20,000 .. 50,0000%00:00 (00:00)
45 The Novelist Dec 10, 2013 $0.99N/A (N/A/66%)100,000 .. 200,0000%00:00 (00:00)
46 Survivor Squad Jan 21, 2015 $0.59N/A (N/A)100,000 .. 200,0000%00:00 (00:00)
47 Knytt Underground Oct 25, 2013 $1.39N/A (N/A)50,000 .. 100,0000%00:00 (00:00)
48 Montague's Mount Nov 19, 2013 $4.99N/A (N/A/39%)20,000 .. 50,0000%00:00 (00:00)
49 Omegalodon Sep 20, 2013 $2.49N/A (N/A)20,000 .. 50,0000%00:00 (00:00)
50 Full Bore May 6, 2014 $2.99N/A (N/A/72%)20,000 .. 50,0000%00:00 (00:00)
51 Solar Flux Oct 24, 2013 $9.99N/A (N/A)100,000 .. 200,0000%00:00 (00:00)
52 DashBored Jun 13, 2016 $1.74N/A (N/A)20,000 .. 50,0000%00:00 (00:00)
53 mr.President Prologue Episode Sep 20, 2016 $0.49N/A (N/A)20,000 .. 50,0000%00:00 (00:00)
54 Robot Legions Reborn Jul 19, 2016 $1.49N/A (N/A)20,000 .. 50,0000%00:00 (00:00)
55 AIRHEART - Tales of broken Wings Jul 23, 2018 $7.49N/A (N/A/62%)20,000 .. 50,0000%00:00 (00:00)
56 Dinosaur Forest May 17, 2017 $0.49N/A (N/A)50,000 .. 100,0000%00:00 (00:00)
57 Snake Pass Mar 28, 2017 $5.99N/A (N/A/71%)200,000 .. 500,0003.45%02:08 (01:22)
58 Joana's Life Sep 1, 2016 $2.99N/A (N/A)50,000 .. 100,0000%00:00 (00:00)
59 Wayout Nov 4, 2016 $0.49N/A (N/A)50,000 .. 100,0000%00:00 (00:00)
60 Intensive Exposure Sep 6, 2016 $4.99N/A (N/A)0 .. 20,0000%00:00 (00:00)
61 Witch It May 31, 2017 $7.49N/A (N/A)200,000 .. 500,0007.14%01:14 (01:05)
62 It Comes Around - A Kinetic Novel Sep 29, 2016 $2.99N/A (N/A)20,000 .. 50,0000%00:00 (00:00)
63 Call Of The Mighty Warriors Jun 2, 2016 $0.49N/A (N/A)20,000 .. 50,0000%00:00 (00:00)
64 Starship Annihilator Sep 2, 2016 $0.49N/A (N/A)50,000 .. 100,0000%00:00 (00:00)
65 Karma Miwa Aug 12, 2016 $0.99N/A (N/A)20,000 .. 50,0000%00:00 (00:00)
66 Deisim Dec 19, 2016 $4.79N/A (N/A)0 .. 20,0000%00:00 (00:00)
67 Super Duper Party Pooper Jun 6, 2016 $0.49N/A (N/A/40%)100,000 .. 200,0000%00:00 (00:00)
68 Please, Don't Touch Anything 3D Dec 7, 2016 $4.49N/A (N/A)20,000 .. 50,0000%00:00 (00:00)
69 Back to Bed Aug 6, 2014 $1.19N/A (N/A)500,000 .. 1,000,0000%00:00 (00:00)
70 Road Not Taken Aug 5, 2014 $14.99N/A (N/A/75%)50,000 .. 100,0000%00:00 (00:00)
71 NEON STRUCT May 20, 2015 $1.79N/A (N/A/62%)20,000 .. 50,0000%00:00 (00:00)
72 Pivvot Jul 14, 2014 $4.99N/A (N/A)0 .. 20,0000%00:00 (00:00)
73 Mega Coin Squad Aug 15, 2014 $5.99N/A (N/A/56%)0 .. 20,0000%00:00 (00:00)
74 Dreaming Sarah Mar 12, 2015 $0.59N/A (N/A)100,000 .. 200,0000%00:00 (00:00)
75 The Masterplan Jun 4, 2015 $19.99N/A (N/A/68%)100,000 .. 200,0000%00:00 (00:00)
76 Captain Forever Remix Jun 3, 2016 $0.99N/A (N/A)50,000 .. 100,0000%00:00 (00:00)
77 Velocibox Sep 8, 2014 $2.49N/A (N/A)50,000 .. 100,0000%00:00 (00:00)
78 Frederic: Evil Strikes Back May 23, 2014 $0.79N/A (N/A)50,000 .. 100,0000%00:00 (00:00)
79 ReignMaker Apr 16, 2014 $14.99N/A (N/A)50,000 .. 100,0000%00:00 (00:00)
80 Rhythm Destruction Jun 16, 2014 $4.99N/A (N/A)50,000 .. 100,0000%00:00 (00:00)
81 Volt Apr 14, 2014 $0.99N/A (N/A)50,000 .. 100,0000%00:00 (00:00)
82 POP: Methodology Experiment One Dec 10, 2014 $3.99N/A (N/A)0 .. 20,0000%00:00 (00:00)
83 Three Dead Zed Jul 7, 2014 $5.99N/A (N/A)50,000 .. 100,0000%00:00 (00:00)
84 Fancy Skulls Jun 16, 2014 $8.99N/A (N/A)20,000 .. 50,0000%00:00 (00:00)
85 Uriel's Chasm Sep 12, 2014 $0.74N/A (N/A)200,000 .. 500,0000%00:00 (00:00)
86 Three Kingdoms The Last Warlord | 三國志漢末霸業 May 26, 2017 $6.79N/A (N/A)20,000 .. 50,0000%00:00 (00:00)
87 GORN Jul 18, 2019 $9.99N/A (N/A/85%)200,000 .. 500,0005.56%00:55 (00:18)
88 Open Sorcery Feb 22, 2017 $3.99N/A (N/A)0 .. 20,0000%00:00 (00:00)
89 Monolith Jun 7, 2017 $3.99N/A (N/A/83%)50,000 .. 100,0000%00:00 (00:00)
90 Guns of Icarus Alliance Mar 31, 2017 $0.74N/A (N/A)50,000 .. 100,0001.21%04:07 (02:44)
91 The Archotek Project Apr 28, 2017 $0.99N/A (N/A)200,000 .. 500,0000%00:00 (00:00)
92 Introvert Quest Mar 15, 2017 $0.49N/A (N/A)100,000 .. 200,0000%00:00 (00:00)
93 Child Phobia: Nightcoming Fears Dec 20, 2016 $1.99N/A (N/A)20,000 .. 50,0000%00:00 (00:00)
94 Mistwood Heroes Dec 30, 2016 $0.49N/A (N/A)20,000 .. 50,0000%00:00 (00:00)
95 Copy Kitty Apr 19, 2018 $4.49N/A (N/A)0 .. 20,0000%00:00 (00:00)
96 Pix the Cat Jan 29, 2015 $1.49N/A (N/A/77%)50,000 .. 100,0000%00:00 (00:00)
97 NEO AQUARIUM - The King of Crustaceans - Jun 8, 2015 $1.79N/A (N/A)20,000 .. 50,0000%00:00 (00:00)
98 Phoenix Force Nov 13, 2014 $0.79N/A (N/A)50,000 .. 100,0000%00:00 (00:00)
99 Reign of Bullets Aug 19, 2015 $9.99N/A (N/A)0 .. 20,0000%00:00 (00:00)
100 Dwarf Tower Dec 23, 2014 $0.99N/A (N/A)20,000 .. 50,0000%00:00 (00:00)
101 Centauri Sector Jun 23, 2015 $4.99N/A (N/A)20,000 .. 50,0000%00:00 (00:00)
102 Bermuda Mar 17, 2015 $2.99N/A (N/A)50,000 .. 100,0000%00:00 (00:00)
103 Home is Where One Starts... May 12, 2015 $0.5N/A (N/A)20,000 .. 50,0000%00:00 (00:00)
104 TIMEframe Jul 7, 2015 $2.99N/A (N/A)50,000 .. 100,0000%00:00 (00:00)
105 Squishy the Suicidal Pig Oct 23, 2014 $0.59N/A (N/A)200,000 .. 500,0000%00:00 (00:00)
106 Countless Rooms of Death Jan 9, 2015 $0.99N/A (N/A)20,000 .. 50,0000%00:00 (00:00)
107 Ninja Pizza Girl Sep 30, 2015 $1.74N/A (N/A/82%)50,000 .. 100,0000%00:00 (00:00)
108 It came from space and ate our brains Mar 19, 2015 $11.24N/A (N/A)200,000 .. 500,0000%00:00 (00:00)
109 Disorder Jan 12, 2015 $3.99N/A (N/A/61%)20,000 .. 50,0000%00:00 (00:00)
110 Three Fourths Home: Extended Edition Mar 20, 2015 $1.49N/A (N/A/77%)20,000 .. 50,0000%00:00 (00:00)
111 Horizon Shift May 29, 2015 $0.99N/A (N/A)100,000 .. 200,0000%00:00 (00:00)
112 Western Press Apr 21, 2016 $0.99N/A (N/A)20,000 .. 50,0000%00:00 (00:00)
113 Spellsworn Mar 13, 2018 FreeN/A (N/A)100,000 .. 200,0000%00:00 (00:00)
114 Action Alien Jun 26, 2015 $3.59N/A (N/A)50,000 .. 100,0000%00:00 (00:00)
115 Luna Sky Oct 2, 2015 $12.99N/A (N/A)50,000 .. 100,0000%00:00 (00:00)
116 8Bit Fiesta - Party Game Sep 30, 2016 FreeN/A (N/A)0 .. 20,0000%00:00 (00:00)
117 Vernon's Legacy Sep 23, 2016 $2.39N/A (N/A)0 .. 20,0000%00:00 (00:00)
118 Aviary Attorney Dec 21, 2015 $14.99N/A (N/A/77%)50,000 .. 100,0000%00:00 (00:00)
119 Pixel Star May 22, 2015 $1.49N/A (N/A)20,000 .. 50,0000%00:00 (00:00)
120 Stray Cat Crossing Aug 28, 2015 $2.99N/A (N/A)20,000 .. 50,0000%00:00 (00:00)
121 Polyball Dec 1, 2017 $1.49N/A (N/A)100,000 .. 200,0001.59%00:30 (00:19)
122 Beyond Eyes Aug 11, 2015 $2.99N/A (N/A/60%)100,000 .. 200,0000%00:00 (00:00)
123 Pizza Express Jun 25, 2015 $0.69N/A (N/A)20,000 .. 50,0000%00:00 (00:00)
124 Gryphon Knight Epic Aug 20, 2015 $6.99N/A (N/A/55%)20,000 .. 50,0000%00:00 (00:00)
125 The Adventures of Mr. Bobley Jul 1, 2015 $0.99N/A (N/A)50,000 .. 100,0000%00:00 (00:00)
126 Canabalt Apr 30, 2015 $1.19N/A (N/A)20,000 .. 50,0000%00:00 (00:00)
127 Monument Jun 5, 2015 $0.71N/A (N/A)100,000 .. 200,0000%00:00 (00:00)
128 Hare In The Hat Apr 1, 2015 $1.19N/A (N/A)50,000 .. 100,0000%00:00 (00:00)
129 Titan Attacks! Feb 3, 2012 $4.99N/A (N/A)50,000 .. 100,0000%00:00 (00:00)
130 Bad Hotel Oct 16, 2013 $4.99N/A (N/A)50,000 .. 100,0000%00:00 (00:00)
131 BIT.TRIP CORE Oct 2, 2012 $3.99N/A (N/A)20,000 .. 50,0000%00:00 (00:00)
132 Godus N/AN/A (N/A)50,000 .. 100,0000%00:00 (00:00)
133 Tales From Space: Mutant Blobs Attack Aug 15, 2012 $2.49N/A (N/A/83%)100,000 .. 200,0000%00:00 (00:00)
134 Zack Zero Apr 29, 2013 $2.99N/A (N/A)50,000 .. 100,0000%00:00 (00:00)
135 Party of Sin Dec 13, 2012 $2.99N/A (N/A)50,000 .. 100,0000%00:00 (00:00)
136 Intake Nov 6, 2013 $9.99N/A (N/A)20,000 .. 50,0000%00:00 (00:00)
137 Home Aug 31, 2012 $0.99N/A (N/A/69%)200,000 .. 500,0000%00:00 (00:00)
138 Super Puzzle Platformer Deluxe May 24, 2013 $0.79N/A (N/A)20,000 .. 50,0000%00:00 (00:00)
139 Ultratron Mar 18, 2013 $4.99N/A (N/A)50,000 .. 100,0000%00:00 (00:00)
140 BIT.TRIP BEAT Nov 2, 2010 $3.99N/A (N/A)200,000 .. 500,0000%00:00 (00:00)
141 Cargo Commander Nov 1, 2012 $0.5N/A (N/A)100,000 .. 200,0000%00:00 (00:00)
142 Super Splatters Jun 26, 2013 N/AN/A (N/A/73%)50,000 .. 100,0000%00:00 (00:00)
143 Papo & Yo Apr 18, 2013 $8.99N/A (N/A/70%)20,000 .. 50,0000%00:00 (00:00)
144 Ms. Splosion Man Apr 3, 2013 $2.49N/A (N/A)50,000 .. 100,0000%00:00 (00:00)
145 Dream Jul 31, 2015 $1.79N/A (N/A/59%)50,000 .. 100,0000%00:00 (00:00)

Tags over time:

Access restricted.

This feature is only available to users with special access rights. Sorry.

If you want to proceed, you need to register or log in first and then back Steam Spy on Patreon. Look for Indie or Pro pledge.

Don't forget to use the same email as on Steam Spy!

Owners of this game also own:

Access restricted.

This feature is only available to users with special access rights. Sorry.

If you want to proceed, you need to register or log in first and then back Steam Spy on Patreon. Look for Indie or Pro pledge.

Don't forget to use the same email as on Steam Spy!

Playtime distribution:

Access restricted.

This feature is only available to users with special access rights. Sorry.

If you want to proceed, you need to register or log in first and then back Steam Spy on Patreon. Look for Indie or Pro pledge.

Don't forget to use the same email as on Steam Spy!

Playtime (2 weeks):

Access restricted.

This feature is only available to users with special access rights. Sorry.

If you want to proceed, you need to register or log in first and then back Steam Spy on Patreon. Look for Indie or Pro pledge.

Don't forget to use the same email as on Steam Spy!

User reviews:

Login required.

Please register or log in to see this information.